createdAt,value
2019-03-12T00:00:52.014Z,100904.77
2019-03-12T00:03:25.075Z,100902.54
2019-03-12T00:05:56.685Z,100896.78
2019-03-12T00:08:28.495Z,100896.81
2019-03-12T00:11:00.869Z,100905.28
2019-03-12T00:13:32.447Z,100905.66
2019-03-12T00:16:04.046Z,100908.28
2019-03-12T00:18:35.627Z,100918.37
2019-03-12T00:21:07.163Z,100914.77
2019-03-12T00:23:38.675Z,100917.36
2019-03-12T00:26:10.272Z,100925.79
2019-03-12T00:28:43.327Z,100923.12
2019-03-12T00:31:14.842Z,100924.86
2019-03-12T00:33:46.552Z,100928.82
2019-03-12T00:36:18.079Z,100938.17
2019-03-12T00:38:49.682Z,100934.12
2019-03-12T00:41:21.209Z,100936.25
2019-03-12T00:43:53.314Z,100944.73
2019-03-12T00:46:27.070Z,100941.61
2019-03-12T00:48:58.119Z,100952.30
2019-03-12T00:51:29.799Z,100952.73
2019-03-12T00:54:01.405Z,100948.27
2019-03-12T00:56:32.931Z,100960.27
2019-03-12T00:59:05.196Z,100962.95
2019-03-12T01:01:36.779Z,100960.72
2019-03-12T01:04:09.607Z,100971.85
2019-03-12T01:06:41.257Z,100978.48
2019-03-12T01:09:12.916Z,100986.88
2019-03-12T01:11:44.587Z,100987.28
2019-03-12T01:14:16.124Z,100995.21
2019-03-12T01:16:48.118Z,101000.94
2019-03-12T01:19:19.658Z,100995.67
2019-03-12T01:21:51.365Z,101009.87
2019-03-12T01:24:23.479Z,101018.80
2019-03-12T01:26:56.640Z,101020.19
2019-03-12T01:29:28.718Z,101024.19
2019-03-12T01:32:00.723Z,101035.71
2019-03-12T01:34:32.411Z,101036.66
2019-03-12T01:37:04.097Z,101037.55
2019-03-12T01:39:36.246Z,101037.61
2019-03-12T01:42:07.787Z,101039.89
2019-03-12T01:44:39.397Z,101049.23
2019-03-12T01:47:11.009Z,101048.34
2019-03-12T01:49:42.701Z,101059.92
2019-03-12T01:52:14.311Z,101069.68
2019-03-12T01:54:46.278Z,101064.84
2019-03-12T01:57:17.842Z,101063.50
2019-03-12T01:59:49.514Z,101065.74
2019-03-12T02:02:21.103Z,101075.06
2019-03-12T02:04:52.627Z,101066.61
2019-03-12T02:07:24.452Z,101061.73
2019-03-12T02:09:55.987Z,101059.55
2019-03-12T02:12:27.496Z,101070.64
2019-03-12T02:14:59.445Z,101082.68
2019-03-12T02:17:31.126Z,101078.67
2019-03-12T02:20:02.647Z,101082.23
2019-03-12T02:22:35.363Z,101080.06
2019-03-12T02:25:11.388Z,101083.17
2019-03-12T02:27:42.916Z,101090.27
2019-03-12T02:30:22.615Z,101093.83
2019-03-12T02:32:54.290Z,101092.52
2019-03-12T02:35:26.186Z,101094.73
2019-03-12T02:37:57.776Z,101093.83
2019-03-12T02:40:29.610Z,101092.09
2019-03-12T02:43:01.211Z,101097.84
2019-03-12T02:45:34.697Z,101100.95
2019-03-12T02:48:07.391Z,101105.84
2019-03-12T02:50:39.066Z,101108.91
2019-03-12T02:53:10.580Z,101109.81
2019-03-12T02:55:42.158Z,101119.59
2019-03-12T02:58:13.670Z,101124.00
2019-03-12T03:00:45.367Z,101122.22
2019-03-12T03:03:18.751Z,101123.12
2019-03-12T03:05:54.814Z,101127.12
2019-03-12T03:08:27.992Z,101134.66
2019-03-12T03:10:59.624Z,101142.17
2019-03-12T03:13:31.630Z,101136.41
2019-03-12T03:16:03.390Z,101140.39
2019-03-12T03:18:35.060Z,101149.27
2019-03-12T03:21:06.597Z,101151.92
2019-03-12T03:23:38.111Z,101147.92
2019-03-12T03:26:09.693Z,101158.59
2019-03-12T03:28:41.316Z,101164.33
2019-03-12T03:31:12.843Z,101164.77
2019-03-12T03:33:44.346Z,101163.88
2019-03-12T03:36:15.952Z,101165.18
2019-03-12T03:38:47.581Z,101169.17
2019-03-12T03:41:19.237Z,101166.09
2019-03-12T03:43:50.779Z,101173.63
2019-03-12T03:46:23.045Z,101172.74
2019-03-12T03:48:54.749Z,101176.29
2019-03-12T03:51:26.286Z,101182.05
2019-03-12T03:53:57.814Z,101185.59
2019-03-12T03:56:29.347Z,101198.41
2019-03-12T03:59:00.900Z,101196.64
2019-03-12T04:01:32.618Z,101193.98
2019-03-12T04:04:05.296Z,101197.94
2019-03-12T04:06:36.813Z,101201.50
2019-03-12T04:09:08.502Z,101208.16
2019-03-12T04:11:40.228Z,101213.05
2019-03-12T04:14:12.329Z,101219.27
2019-03-12T04:16:44.202Z,101217.05
2019-03-12T04:19:16.172Z,101223.23
2019-03-12T04:21:47.755Z,101215.69
2019-03-12T04:24:19.276Z,101225.89
2019-03-12T04:26:52.508Z,101223.22
2019-03-12T04:29:24.030Z,101232.96
2019-03-12T04:31:56.069Z,101235.21
2019-03-12T04:34:28.085Z,101242.74
2019-03-12T04:36:59.627Z,101238.73
2019-03-12T04:39:32.605Z,101245.37
2019-03-12T04:42:04.206Z,101243.16
2019-03-12T04:44:36.101Z,101252.90
2019-03-12T04:47:07.665Z,101256.91
2019-03-12T04:49:39.547Z,101263.97
2019-03-12T04:52:11.329Z,101271.51
2019-03-12T04:54:42.856Z,101273.23
2019-03-12T04:57:14.369Z,101279.88
2019-03-12T04:59:45.899Z,101276.35
2019-03-12T05:02:17.402Z,101278.09
2019-03-12T05:04:49.545Z,101280.76
2019-03-12T05:07:21.079Z,101280.78
2019-03-12T05:09:52.593Z,101286.08
2019-03-12T05:12:24.177Z,101282.54
2019-03-12T05:14:55.728Z,101280.33
2019-03-12T05:17:27.312Z,101286.55
2019-03-12T05:19:58.910Z,101293.21
2019-03-12T05:22:30.422Z,101292.77
2019-03-12T05:25:02.967Z,101287.91
2019-03-12T05:27:36.077Z,101290.13
2019-03-12T05:30:20.851Z,101296.80
2019-03-12T05:32:52.965Z,101300.78
2019-03-12T05:35:24.928Z,101294.14
2019-03-12T05:37:56.523Z,101292.84
2019-03-12T05:40:28.121Z,101303.03
2019-03-12T05:42:59.657Z,101299.94
2019-03-12T05:45:31.172Z,101306.14
2019-03-12T05:48:02.958Z,101313.28
2019-03-12T05:50:34.462Z,101308.83
2019-03-12T05:53:14.979Z,101314.15
2019-03-12T05:55:46.738Z,101318.17
2019-03-12T05:58:18.233Z,101313.73
2019-03-12T06:00:49.828Z,101318.64
2019-03-12T06:03:21.350Z,101325.29
2019-03-12T06:05:53.284Z,101326.17
2019-03-12T06:08:25.142Z,101336.84
2019-03-12T06:10:56.671Z,101343.94
2019-03-12T06:13:28.175Z,101337.73
2019-03-12T06:15:59.881Z,101339.48
2019-03-12T06:18:31.483Z,101354.55
2019-03-12T06:21:03.007Z,101345.17
2019-03-12T06:23:34.548Z,101340.78
2019-03-12T06:26:06.080Z,101336.83
2019-03-12T06:28:37.603Z,101337.76
2019-03-12T06:31:16.952Z,101337.31
2019-03-12T06:33:52.264Z,101344.81
2019-03-12T06:36:25.486Z,101343.07
2019-03-12T06:38:56.770Z,101347.09
2019-03-12T06:41:31.075Z,101350.64
2019-03-12T06:44:22.613Z,101351.55
2019-03-12T06:47:12.211Z,101361.72
2019-03-12T06:49:46.533Z,101353.30
2019-03-12T06:52:20.915Z,101364.39
2019-03-12T06:54:57.511Z,101369.73
2019-03-12T06:57:31.804Z,101362.20
2019-03-12T07:00:05.880Z,101368.85
2019-03-12T07:02:37.351Z,101372.38
2019-03-12T07:05:26.683Z,101366.58
2019-03-12T07:08:14.929Z,101371.47
2019-03-12T07:10:48.617Z,101373.27
2019-03-12T07:13:38.150Z,101374.16
2019-03-12T07:16:11.526Z,101383.47
2019-03-12T07:18:44.697Z,101376.80
2019-03-12T07:21:18.906Z,101371.97
2019-03-12T07:24:08.457Z,101381.27
2019-03-12T07:26:44.381Z,101380.37
2019-03-12T07:29:35.046Z,101383.93
2019-03-12T07:32:24.559Z,101374.99
2019-03-12T07:35:06.838Z,101378.56
2019-03-12T07:37:56.037Z,101378.58
2019-03-12T07:40:38.089Z,101384.38
2019-03-12T07:43:27.548Z,101392.37
2019-03-12T07:46:00.967Z,101401.70
2019-03-12T07:48:34.206Z,101394.58
2019-03-12T07:51:07.413Z,101394.13
2019-03-12T07:53:44.595Z,101390.56
2019-03-12T07:56:25.022Z,101395.87
2019-03-12T07:59:14.892Z,101391.88
2019-03-12T08:01:48.115Z,101395.41
2019-03-12T08:04:23.102Z,101389.63
2019-03-12T08:06:56.242Z,101389.17
2019-03-12T08:09:38.772Z,101386.46
2019-03-12T08:12:14.967Z,101385.55
2019-03-12T08:14:48.259Z,101388.66
2019-03-12T08:17:25.488Z,101398.84
2019-03-12T08:20:01.950Z,101409.50
2019-03-12T08:22:33.286Z,101400.63
2019-03-12T08:25:11.378Z,101408.59
2019-03-12T08:27:53.799Z,101407.27
2019-03-12T08:30:27.013Z,101413.94
2019-03-12T08:33:04.233Z,101414.88
2019-03-12T08:35:37.479Z,101418.05
2019-03-12T08:38:13.806Z,101423.34
2019-03-12T08:40:52.737Z,101437.09
2019-03-12T08:43:25.164Z,101438.94
2019-03-12T08:46:04.334Z,101438.05
2019-03-12T08:48:54.081Z,101435.38
2019-03-12T08:51:30.223Z,101434.02
2019-03-12T08:54:05.846Z,101436.24
2019-03-12T08:56:54.271Z,101428.69
2019-03-12T08:59:27.654Z,101430.02
2019-03-12T09:02:12.849Z,101426.42
2019-03-12T09:04:44.577Z,101422.41
2019-03-12T09:07:23.974Z,101425.03
2019-03-12T09:10:21.691Z,101414.77
2019-03-12T09:12:53.468Z,101427.64
2019-03-12T09:15:29.431Z,101420.05
2019-03-12T09:18:19.000Z,101417.79
2019-03-12T09:21:10.466Z,101422.26
2019-03-12T09:24:02.092Z,101432.47
2019-03-12T09:26:35.238Z,101424.45
2019-03-12T09:29:14.314Z,101428.11
2019-03-12T09:32:08.176Z,101431.22
2019-03-12T09:34:44.568Z,101430.78
2019-03-12T09:37:30.040Z,101428.06
2019-03-12T09:40:02.474Z,101427.58
2019-03-12T09:42:54.076Z,101420.40
2019-03-12T09:45:43.302Z,101412.72
2019-03-12T09:48:23.331Z,101413.63
2019-03-12T09:51:09.034Z,101417.75
2019-03-12T09:53:46.612Z,101416.44
2019-03-12T09:56:17.974Z,101409.64
2019-03-12T09:59:03.529Z,101412.98
2019-03-12T10:01:53.350Z,101408.81
2019-03-12T10:04:32.241Z,101398.87
2019-03-12T10:07:14.172Z,101404.33
2019-03-12T10:09:47.544Z,101397.13
2019-03-12T10:12:37.047Z,101401.81
2019-03-12T10:15:12.221Z,101403.54
2019-03-12T10:17:57.467Z,101398.48
2019-03-12T10:20:43.018Z,101402.75
2019-03-12T10:23:14.387Z,101397.11
2019-03-12T10:25:53.713Z,101394.69
2019-03-12T10:28:38.268Z,101393.66
2019-03-12T10:31:21.652Z,101380.02
2019-03-12T10:34:01.627Z,101378.03
2019-03-12T10:36:35.103Z,101378.19
2019-03-12T10:39:49.822Z,101371.63
2019-03-12T10:42:33.580Z,101370.58
2019-03-12T10:45:26.667Z,101363.80
2019-03-12T10:48:05.135Z,101360.78
2019-03-12T10:50:36.688Z,101362.89
2019-03-12T10:53:08.358Z,101364.55
2019-03-12T10:55:39.954Z,101365.77
2019-03-12T10:58:11.492Z,101360.48
2019-03-12T11:00:43.187Z,101354.42
2019-03-12T11:03:14.945Z,101351.52
2019-03-12T11:05:46.565Z,101347.31
2019-03-12T11:08:18.296Z,101352.28
2019-03-12T11:10:49.890Z,101341.87
2019-03-12T11:13:21.422Z,101334.97
2019-03-12T11:15:53.892Z,101331.28
2019-03-12T11:18:25.420Z,101322.89
2019-03-12T11:20:58.710Z,101322.75
2019-03-12T11:23:30.346Z,101323.49
2019-03-12T11:26:02.006Z,101320.13
2019-03-12T11:28:33.616Z,101315.79
2019-03-12T11:31:05.216Z,101315.51
2019-03-12T11:33:36.810Z,101301.84
2019-03-12T11:36:09.537Z,101300.93
2019-03-12T11:38:42.819Z,101293.70
2019-03-12T11:41:14.563Z,101299.28
2019-03-12T11:43:46.250Z,101293.30
2019-03-12T11:46:17.877Z,101283.70
2019-03-12T11:48:49.598Z,101277.62
2019-03-12T11:51:21.114Z,101273.73
2019-03-12T11:53:53.128Z,101267.63
2019-03-12T11:56:24.788Z,101272.76
2019-03-12T11:58:56.406Z,101275.58
2019-03-12T12:01:28.042Z,101270.66
2019-03-12T12:03:59.691Z,101276.38
2019-03-12T12:06:31.638Z,101265.39
2019-03-12T12:09:03.310Z,101259.67
2019-03-12T12:11:36.435Z,101256.96
2019-03-12T12:14:07.967Z,101249.36
2019-03-12T12:16:39.656Z,101237.91
2019-03-12T12:19:11.247Z,101244.30
2019-03-12T12:21:43.181Z,101227.38
2019-03-12T12:24:14.966Z,101231.61
2019-03-12T12:26:46.471Z,101229.45
2019-03-12T12:29:18.219Z,101229.48
2019-03-12T12:31:49.950Z,101222.55
2019-03-12T12:34:22.067Z,101225.73
2019-03-12T12:36:53.660Z,101214.44
2019-03-12T12:39:25.187Z,101224.81
2019-03-12T12:41:57.728Z,101227.08
2019-03-12T12:44:29.705Z,101218.77
2019-03-12T12:47:01.253Z,101219.09
2019-03-12T12:49:32.984Z,101202.06
2019-03-12T12:52:04.679Z,101205.77
2019-03-12T12:54:37.164Z,101203.80
2019-03-12T12:57:08.690Z,101199.27
2019-03-12T12:59:40.384Z,101197.09
2019-03-12T13:02:11.914Z,101191.23
2019-03-12T13:04:43.983Z,101192.32
2019-03-12T13:07:15.661Z,101183.66
2019-03-12T13:09:47.545Z,101188.61
2019-03-12T13:12:19.180Z,101181.20
2019-03-12T13:14:50.771Z,101183.09
2019-03-12T13:17:22.312Z,101179.67
2019-03-12T13:19:53.935Z,101171.55
2019-03-12T13:22:25.677Z,101163.94
2019-03-12T13:24:57.242Z,101163.52
2019-03-12T13:27:41.361Z,101156.80
2019-03-12T13:30:02.093Z,101157.11
2019-03-12T13:32:33.851Z,101158.38
2019-03-12T13:35:18.642Z,101161.06
2019-03-12T13:37:50.764Z,101156.28
2019-03-12T13:40:26.779Z,101154.71
2019-03-12T13:42:58.731Z,101159.46
2019-03-12T13:45:33.690Z,101157.34
2019-03-12T13:48:05.213Z,101160.30
2019-03-12T13:50:36.711Z,101155.55
2019-03-12T13:53:08.728Z,101156.53
2019-03-12T13:55:40.321Z,101149.47
2019-03-12T13:58:11.866Z,101141.94
2019-03-12T14:00:43.602Z,101149.69
2019-03-12T14:03:15.206Z,101149.11
2019-03-12T14:05:46.891Z,101143.79
2019-03-12T14:08:18.393Z,101150.88
2019-03-12T14:10:49.995Z,101139.76
2019-03-12T14:13:22.713Z,101135.91
2019-03-12T14:15:54.361Z,101130.70
2019-03-12T14:18:26.010Z,101131.42
2019-03-12T14:21:02.808Z,101132.52
2019-03-12T14:24:01.522Z,101129.77
2019-03-12T14:26:33.248Z,101130.05
2019-03-12T14:29:04.963Z,101126.95
2019-03-12T14:31:36.554Z,101120.73
2019-03-12T14:34:08.080Z,101115.77
2019-03-12T14:36:39.614Z,101113.48
2019-03-12T14:39:11.587Z,101106.53
2019-03-12T14:41:44.711Z,101105.91
2019-03-12T14:44:16.309Z,101107.25
2019-03-12T14:46:48.054Z,101097.70
2019-03-12T14:49:19.637Z,101099.05
2019-03-12T14:52:04.948Z,101085.55
2019-03-12T14:54:36.521Z,101082.09
2019-03-12T14:57:08.054Z,101073.41
2019-03-12T14:59:39.641Z,101068.11
2019-03-12T15:02:11.159Z,101061.37
2019-03-12T15:04:43.434Z,101054.02
2019-03-12T15:07:14.963Z,101048.56
2019-03-12T15:09:46.815Z,101042.91
2019-03-12T15:12:18.486Z,101039.08
2019-03-12T15:14:50.073Z,101035.97
2019-03-12T15:17:23.323Z,101033.78
2019-03-12T15:19:55.178Z,101026.23
2019-03-12T15:22:28.326Z,101018.19
2019-03-12T15:25:01.288Z,101013.45
2019-03-12T15:27:33.309Z,101008.93
2019-03-12T15:30:11.666Z,101002.80
2019-03-12T15:32:43.287Z,100997.56
2019-03-12T15:35:16.045Z,101002.67
2019-03-12T15:37:47.904Z,100997.28
2019-03-12T15:40:19.790Z,101000.38
2019-03-12T15:42:55.739Z,100990.65
2019-03-12T15:45:27.518Z,100986.45
2019-03-12T15:47:59.103Z,100986.47
2019-03-12T15:50:30.722Z,100976.45
2019-03-12T15:53:02.426Z,100973.85
2019-03-12T15:55:34.038Z,100971.16
2019-03-12T15:58:05.621Z,100968.23
2019-03-12T16:00:37.146Z,100957.06
2019-03-12T16:03:08.703Z,100961.17
2019-03-12T16:05:40.656Z,100955.54
2019-03-12T16:08:12.357Z,100950.77
2019-03-12T16:10:57.485Z,100940.53
2019-03-12T16:13:19.106Z,100933.59
2019-03-12T16:15:50.734Z,100928.47
2019-03-12T16:18:22.254Z,100923.95
2019-03-12T16:20:53.934Z,100918.77
2019-03-12T16:23:25.513Z,100922.39
2019-03-12T16:25:57.321Z,100914.02
2019-03-12T16:28:29.016Z,100908.66
2019-03-12T16:31:00.615Z,100901.21
2019-03-12T16:33:32.341Z,100909.28
2019-03-12T16:36:05.557Z,100905.85
2019-03-12T16:38:38.069Z,100909.61
2019-03-12T16:41:09.678Z,100905.54
2019-03-12T16:43:41.505Z,100900.30
2019-03-12T16:46:15.721Z,100894.02
2019-03-12T16:48:48.873Z,100894.00
2019-03-12T16:51:20.851Z,100892.92
2019-03-12T16:53:52.459Z,100886.23
2019-03-12T16:56:24.115Z,100888.03
2019-03-12T16:58:55.616Z,100887.49
2019-03-12T17:01:27.282Z,100886.17
2019-03-12T17:03:59.914Z,100881.24
2019-03-12T17:06:31.570Z,100881.80
2019-03-12T17:09:04.778Z,100883.50
2019-03-12T17:11:37.895Z,100874.03
2019-03-12T17:14:14.174Z,100875.88
2019-03-12T17:16:50.155Z,100876.77
2019-03-12T17:19:22.762Z,100877.23
2019-03-12T17:22:03.904Z,100866.48
2019-03-12T17:24:37.039Z,100864.21
2019-03-12T17:27:11.838Z,100863.83
2019-03-12T17:29:43.559Z,100864.84
2019-03-12T17:32:15.210Z,100860.89
2019-03-12T17:34:46.910Z,100848.03
2019-03-12T17:37:20.076Z,100850.22
2019-03-12T17:39:51.744Z,100842.83
2019-03-12T17:42:23.345Z,100842.75
2019-03-12T17:44:54.953Z,100836.50
2019-03-12T17:47:26.459Z,100830.28
2019-03-12T17:49:59.066Z,100827.68
2019-03-12T17:52:30.731Z,100825.54
2019-03-12T17:55:02.339Z,100828.62
2019-03-12T17:57:34.004Z,100826.88
2019-03-12T18:00:32.695Z,100814.91
2019-03-12T18:03:04.290Z,100816.36
2019-03-12T18:05:35.885Z,100807.56
2019-03-12T18:08:07.774Z,100803.44
2019-03-12T18:10:40.475Z,100801.64
2019-03-12T18:13:12.500Z,100796.44
2019-03-12T18:15:44.247Z,100797.89
2019-03-12T18:18:15.777Z,100790.01
2019-03-12T18:20:47.299Z,100791.45
2019-03-12T18:23:19.117Z,100784.84
2019-03-12T18:25:52.132Z,100783.57
2019-03-12T18:28:23.863Z,100772.70
2019-03-12T18:30:55.542Z,100771.89
2019-03-12T18:33:27.048Z,100769.15
2019-03-12T18:35:58.661Z,100768.38
2019-03-12T18:38:30.183Z,100763.03
2019-03-12T18:41:01.757Z,100758.66
2019-03-12T18:43:33.285Z,100750.66
2019-03-12T18:46:05.469Z,100749.77
2019-03-12T18:48:37.000Z,100738.22
2019-03-12T18:51:08.536Z,100741.05
2019-03-12T18:53:40.083Z,100738.39
2019-03-12T18:56:11.582Z,100732.59
2019-03-12T18:58:43.158Z,100730.25
2019-03-12T19:01:15.441Z,100722.31
2019-03-12T19:03:47.059Z,100727.67
2019-03-12T19:06:19.408Z,100737.87
2019-03-12T19:08:53.321Z,100732.96
2019-03-12T19:11:24.965Z,100726.68
2019-03-12T19:13:56.749Z,100725.77
2019-03-12T19:16:28.254Z,100720.06
2019-03-12T19:19:00.017Z,100720.56
2019-03-12T19:21:31.691Z,100719.64
2019-03-12T19:24:03.921Z,100713.42
2019-03-12T19:26:35.592Z,100702.27
2019-03-12T19:29:07.128Z,100691.52
2019-03-12T19:31:49.429Z,100690.25
2019-03-12T19:34:23.017Z,100687.59
2019-03-12T19:36:54.650Z,100677.82
2019-03-12T19:39:26.231Z,100675.98
2019-03-12T19:41:57.888Z,100662.52
2019-03-12T19:44:29.387Z,100659.85
2019-03-12T19:47:04.222Z,100650.56
2019-03-12T19:49:34.318Z,100648.46
2019-03-12T19:52:10.720Z,100648.73
2019-03-12T19:54:44.122Z,100639.44
2019-03-12T19:57:15.668Z,100636.19
2019-03-12T19:59:47.797Z,100623.29
2019-03-12T20:02:20.138Z,100620.81
2019-03-12T20:04:51.752Z,100615.71
2019-03-12T20:07:23.277Z,100609.87
2019-03-12T20:09:58.365Z,100606.42
2019-03-12T20:13:17.650Z,100594.32
2019-03-12T20:16:16.554Z,100591.12
2019-03-12T20:19:15.845Z,100595.16
2019-03-12T20:22:24.339Z,100581.39
2019-03-12T20:25:40.040Z,100574.66
2019-03-12T20:28:50.870Z,100563.47
2019-03-12T20:31:51.530Z,100549.30
2019-03-12T20:34:52.626Z,100543.20
2019-03-12T20:38:09.531Z,100538.87
2019-03-12T20:41:17.757Z,100528.44
2019-03-12T20:44:17.986Z,100519.97
2019-03-12T20:47:06.424Z,100511.75
2019-03-12T20:50:29.361Z,100500.11
2019-03-12T20:53:39.118Z,100498.30
2019-03-12T20:56:41.492Z,100487.34
2019-03-12T21:00:09.571Z,100486.84
2019-03-12T21:03:35.456Z,100479.96
2019-03-12T21:06:46.772Z,100469.28
2019-03-12T21:09:47.819Z,100458.36
2019-03-12T21:12:44.851Z,100449.03
2019-03-12T21:15:48.630Z,100447.69
2019-03-12T21:18:58.242Z,100437.71
2019-03-12T21:22:22.493Z,100432.34
2019-03-12T21:25:21.362Z,100424.92
2019-03-12T21:28:31.182Z,100423.08
2019-03-12T21:31:02.792Z,100408.72
2019-03-12T21:33:34.479Z,100391.50
2019-03-12T21:36:08.191Z,100391.81
2019-03-12T21:38:39.250Z,100387.39
2019-03-12T21:41:10.831Z,100379.28
2019-03-12T21:43:42.397Z,100372.41
2019-03-12T21:46:14.133Z,100370.03
2019-03-12T21:48:46.852Z,100354.55
2019-03-12T21:51:18.379Z,100350.43
2019-03-12T21:53:50.033Z,100342.50
2019-03-12T21:56:21.544Z,100341.27
2019-03-12T21:58:53.200Z,100329.84
2019-03-12T22:01:24.710Z,100316.06
2019-03-12T22:03:56.676Z,100311.13
2019-03-12T22:06:28.298Z,100300.27
2019-03-12T22:08:59.905Z,100295.69
2019-03-12T22:11:31.584Z,100291.70
2019-03-12T22:14:03.109Z,100284.17
2019-03-12T22:16:37.685Z,100274.72
2019-03-12T22:19:09.297Z,100265.88
2019-03-12T22:21:42.661Z,100262.60
2019-03-12T22:24:16.014Z,100262.72
2019-03-12T22:26:47.591Z,100252.22
2019-03-12T22:29:19.126Z,100248.65
2019-03-12T22:31:50.821Z,100251.32
2019-03-12T22:34:22.517Z,100226.25
2019-03-12T22:36:54.213Z,100220.08
2019-03-12T22:39:25.753Z,100229.22
2019-03-12T22:41:57.267Z,100207.92
2019-03-12T22:44:28.792Z,100199.04
2019-03-12T22:47:00.317Z,100192.11
2019-03-12T22:49:31.946Z,100195.77
2019-03-12T22:52:03.472Z,100191.86
2019-03-12T22:54:34.975Z,100190.42
2019-03-12T22:57:07.255Z,100184.13
2019-03-12T22:59:56.861Z,100169.07
2019-03-12T23:02:46.765Z,100147.47
2019-03-12T23:05:37.646Z,100145.02
2019-03-12T23:08:27.783Z,100138.30
2019-03-12T23:11:02.474Z,100141.38
2019-03-12T23:13:35.795Z,100138.68
2019-03-12T23:16:09.631Z,100136.45
2019-03-12T23:18:47.342Z,100135.12
2019-03-12T23:21:18.946Z,100128.84
2019-03-12T23:23:50.745Z,100120.83
2019-03-12T23:26:22.641Z,100113.50
2019-03-12T23:28:54.449Z,100107.55
2019-03-12T23:34:03.207Z,100097.42
2019-03-12T23:36:34.790Z,100102.97
2019-03-12T23:39:07.741Z,100097.11
2019-03-12T23:41:42.607Z,100084.46
2019-03-12T23:44:15.646Z,100069.72
2019-03-12T23:46:47.195Z,100068.94
2019-03-12T23:49:19.165Z,100065.03
2019-03-12T23:51:50.905Z,100054.92
2019-03-12T23:54:22.570Z,100040.90
2019-03-12T23:56:54.238Z,100034.22
2019-03-12T23:59:26.047Z,100030.79
